• Join FlightAware (Why Join?)
  • Login
  • US Flag 
07:45AM EDT


 

Airport Tracker/Info


-or-


 

Live Flight TrackerFlight Track Log ✈ AAL928 ✈ 17-Nov-2013 ✈ KATL - KDFW

Flight Track Log - Related Links

Times and Time Zones

All times are in EST time to prevent confusion due to time zone crossing. See the AAL928 flight status page for this flight to view local times or setup timezone preferences in your user account.

Time Position Orientation Groundspeed Altitude Reporting Facility
EST Latitude Longitude Course Direction KTS MPH feet Rate Location/Type
09:39PM 33.6500 -84.5000 287° West 211 243 3,400  Level Atlanta TRACON
09:40PM 33.6667 -84.5667 287° West 239 275 6,000 2,760 Climbing Atlanta TRACON
09:41PM 33.6881 -84.7031 281° West 260 299 11,000 2,520 Climbing Atlanta Center
09:42PM 33.6981 -84.7978 277° West 269 310 13,100 2,340 Climbing Atlanta Center
09:43PM 33.6847 -84.9075 262° West 309 356 15,700 2,340 Climbing Atlanta Center
09:44PM 33.6736 -85.0172 263° West 338 389 17,800 2,280 Climbing Atlanta Center
09:45PM 33.6600 -85.1444 263° West 353 406 20,300 2,520 Climbing Atlanta Center
09:46PM 33.6483 -85.2592 263° West 353 406 22,900 2,040 Climbing Atlanta Center
09:47PM 33.6514 -85.3789 272° West 353 406 24,400 1,440 Climbing Atlanta Center
09:48PM 33.6542 -85.5011 272° West 363 418 25,800 1,440 Climbing Atlanta Center
09:49PM 33.6567 -85.6286 271° West 381 438 27,300 1,200 Climbing Atlanta Center
09:50PM 33.6592 -85.7583 271° West 386 444 28,200 1,200 Climbing Atlanta Center
09:51PM 33.6572 -85.8806 269° West 381 438 29,700 900 Climbing Atlanta Center
09:52PM 33.6597 -86.0031 271° West 375 432 30,000 120 Climbing Atlanta Center
09:53PM 33.6619 -86.1228 271° West 369 425 30,000  Level Atlanta Center
09:54PM 33.6617 -86.2450 270° West 364 419 30,000  Level Atlanta Center
09:55PM 33.6639 -86.3650 271° West 364 419 30,000  Level Atlanta Center
09:56PM 33.6656 -86.4872 271° West 364 419 30,000  Level Atlanta Center
09:57PM 33.6672 -86.6122 271° West 364 419 30,000  Level Atlanta Center
09:58PM 33.6667 -86.7319 270° West 364 419 30,000  Level Atlanta Center
09:59PM 33.6681 -86.8542 271° West 364 419 30,000  Level Atlanta Center
10:00PM 33.6589 -86.9786 265° West 364 419 30,000  Level Atlanta Center
10:01PM 33.6456 -87.0981 262° West 369 425 30,000  Level Atlanta Center
10:04PM 33.6181 -87.3650 263° West 366 421 30,000  Level Memphis Center
10:05PM 33.6042 -87.4858 262° West 366 421 30,000  Level Memphis Center
10:06PM 33.5906 -87.6089 262° West 368 423 30,000  Level Memphis Center
10:07PM 33.5761 -87.7297 262° West 368 423 30,000  Level Memphis Center
10:08PM 33.5594 -87.8764 262° West 368 423 30,000  Level Memphis Center
10:09PM 33.5467 -87.9975 263° West 368 423 30,000  Level Memphis Center
10:10PM 33.5317 -88.1192 262° West 368 423 30,000  Level Memphis Center
10:11PM 33.5186 -88.2347 262° West 369 425 30,000  Level Memphis Center
10:12PM 33.5036 -88.3547 262° West 369 425 30,000  Level Memphis Center
10:13PM 33.4886 -88.4753 262° West 369 425 30,000  Level Memphis Center
10:14PM 33.4817 -88.5969 266° West 368 423 30,000  Level Memphis Center
10:15PM 33.4831 -88.7433 271° West 368 423 30,000  Level Memphis Center
10:16PM 33.4825 -88.8661 270° West 371 427 30,000  Level Memphis Center
10:17PM 33.4811 -88.9883 269° West 371 427 30,000  Level Memphis Center
10:18PM 33.4797 -89.1092 269° West 368 423 30,000  Level Memphis Center
10:19PM 33.4797 -89.2317 270° West 370 426 30,000  Level Memphis Center
10:20PM 33.4781 -89.3547 269° West 373 429 30,000  Level Memphis Center
10:21PM 33.4761 -89.4767 269° West 372 428 30,000  Level Memphis Center
10:22PM 33.4747 -89.6233 269° West 372 428 30,000  Level Memphis Center
10:23PM 33.4731 -89.7458 269° West 374 430 30,000  Level Memphis Center
10:24PM 33.4706 -89.8689 269° West 375 432 30,000  Level Memphis Center
10:25PM 33.4692 -89.9919 269° West 375 432 30,000  Level Memphis Center
10:26PM 33.4661 -90.1144 268° West 374 430 30,000  Level Memphis Center
10:27PM 33.4639 -90.2372 269° West 375 432 30,000  Level Memphis Center
10:28PM 33.4247 -90.3511 248° West 384 442 30,000  Level Memphis Center
10:29PM 33.3581 -90.4786 238° Southwest 383 441 30,000  Level Memphis Center
10:30PM 33.3017 -90.5844 238° Southwest 383 441 30,000  Level Memphis Center
10:31PM 33.2439 -90.6919 237° Southwest 387 445 30,000  Level Memphis Center
10:32PM 33.1875 -90.7992 238° Southwest 385 443 30,000  Level Memphis Center
10:33PM 33.1308 -90.9050 237° Southwest 384 442 30,000  Level Memphis Center
10:34PM 33.0725 -91.0125 237° Southwest 388 447 30,000  Level Memphis Center
10:35PM 33.0147 -91.1206 237° Southwest 389 448 30,000  Level Memphis Center
10:37PM 32.9000 -91.3344 237° Southwest 388 447 30,000  Level Fort Worth Center
10:38PM 32.8300 -91.4639 237° Southwest 389 448 30,000  Level Fort Worth Center
10:39PM 32.7683 -91.5711 236° Southwest 392 451 30,000  Level Memphis Center
10:40PM 32.7100 -91.6783 237° Southwest 391 450 30,000  Level Memphis Center
10:41PM 32.6517 -91.7867 237° Southwest 392 451 30,000  Level Memphis Center
10:43PM 32.5917 -91.8939 236° Southwest 393 452 30,000  Level Memphis Center
10:44PM 32.5289 -92.0108 238° Southwest 392 451 30,000  Level Memphis Center
10:45PM 32.5122 -92.1314 261° West 386 444 30,000  Level Fort Worth Center
10:46PM 32.5022 -92.2522 264° West 384 442 30,000  Level Fort Worth Center
10:47PM 32.4936 -92.3783 265° West 386 444 30,000  Level Fort Worth Center
10:48PM 32.4836 -92.5106 265° West 385 443 30,000  Level Fort Worth Center
10:49PM 32.4747 -92.6367 265° West 384 442 30,000  Level Fort Worth Center
10:50PM 32.4647 -92.7625 265° West 385 443 30,000  Level Fort Worth Center
10:51PM 32.4553 -92.8900 265° West 387 445 30,000  Level Fort Worth Center
10:52PM 32.4439 -93.0417 265° West 386 444 30,000  Level Fort Worth Center
10:53PM 32.4344 -93.1689 265° West 387 445 30,000  Level Fort Worth Center
10:54PM 32.4244 -93.2956 265° West 387 445 30,000  Level Fort Worth Center
10:55PM 32.4136 -93.4222 264° West 386 444 30,000  Level Fort Worth Center
10:56PM 32.4031 -93.5511 264° West 392 451 30,000  Level Fort Worth Center
10:57PM 32.4000 -93.6789 268° West 389 448 30,000  Level Fort Worth Center
10:58PM 32.4033 -93.8053 272° West 384 442 30,000  Level Fort Worth Center
10:59PM 32.4058 -93.9331 271° West 387 445 30,000  Level Fort Worth Center
11:00PM 32.4078 -94.0608 271° West 389 448 30,000  Level Fort Worth Center
11:01PM 32.4100 -94.1892 271° West 390 449 30,000  Level Fort Worth Center
11:02PM 32.4108 -94.3181 270° West 392 451 30,000  Level Fort Worth Center
11:03PM 32.4131 -94.4483 271° West 395 455 30,000  Level Fort Worth Center
11:04PM 32.4153 -94.5764 271° West 392 451 30,000  Level Fort Worth Center
11:05PM 32.4150 -94.7042 270° West 387 445 30,000  Level Fort Worth Center
11:06PM 32.3986 -94.8581 263° West 395 455 30,000 -300 Level Fort Worth Center
11:07PM 32.3339 -94.9619 234° Southwest 395 455 29,500 -1,200 Descending Fort Worth Center
11:09PM 32.2017 -95.1586 232° Southwest 385 443 26,500 -1,500 Descending Fort Worth Center
11:10PM 32.1725 -95.2739 253° West 370 426 25,100 -1,260 Descending Fort Worth Center
11:11PM 32.1736 -95.3919 271° West 368 423 24,000 -600 Descending Fort Worth Center
11:12PM 32.1744 -95.5119 271° West 365 420 23,900 -960 Descending Fort Worth Center
11:13PM 32.1736 -95.6278 270° West 367 422 22,100 -1,860 Descending Fort Worth Center
11:14PM 32.1764 -95.7447 272° West 359 413 20,200 -1,980 Descending Fort Worth Center
11:15PM 32.1789 -95.8786 271° West 342 394 18,100 -1,860 Descending Fort Worth Center
11:16PM 32.1811 -95.9947 271° West 352 405 16,500 -1,560 Descending Fort Worth Center
11:18PM 32.1833 -96.1833 271° West 337 388 13,800 -1,500 Descending Dallas / Fort Worth TRACON
11:19PM 32.2333 -96.2667 305° West 326 375 12,600 -1,260 Descending Dallas / Fort Worth TRACON
11:20PM 32.3000 -96.3500 313° West 321 369 11,500 -780 Descending Dallas / Fort Worth TRACON
11:21PM 32.3500 -96.4167 312° West 296 341 11,100 -240 Descending Dallas / Fort Worth TRACON
11:22PM 32.4167 -96.4833 320° Northwest 288 331 11,100 -240 Level Dallas / Fort Worth TRACON
11:23PM 32.4667 -96.5667 305° West 286 329 10,700 -960 Descending Dallas / Fort Worth TRACON
11:24PM 32.5000 -96.6333 301° West 282 325 9,200 -1,620 Descending Dallas / Fort Worth TRACON
11:25PM 32.5500 -96.7000 312° West 264 304 7,700 -1,680 Descending Dallas / Fort Worth TRACON
11:26PM 32.6000 -96.7833 305° West 277 319 5,900 -1,500 Descending Dallas / Fort Worth TRACON
11:27PM 32.6500 -96.8500 312° West 268 308 4,600 -1,020 Descending Dallas / Fort Worth TRACON
11:28PM 32.6833 -96.9167 301° West 237 273 3,900 -660 Descending Dallas / Fort Worth TRACON
11:29PM 32.7167 -96.9667 308° West 195 224 3,300 -600 Descending Dallas / Fort Worth TRACON
11:30PM 32.7500 -97.0167 308° West 175 201 2,800 -540 Descending Dallas / Fort Worth TRACON
11:31PM 32.8000 -97.0167 360° North 157 181 2,300 -660 Descending Dallas / Fort Worth TRACON
11:32PM 32.8333 -97.0167 360° North 112 129 1,600 -720 Descending Dallas / Fort Worth TRACON
11:33PM 32.8667 -97.0167 360° North 118 136 900 -720 Descending Dallas / Fort Worth TRACON